sensor_id;sensor_type;location;lat;lon;timestamp;P1;durP1;ratioP1;P2;durP2;ratioP2
17570;SDS011;8903;52.220;20.978;2023-02-28T00:01:31;10.20;;;8.03;;
17570;SDS011;8903;52.220;20.978;2023-02-28T00:03:59;9.83;;;7.70;;
17570;SDS011;8903;52.220;20.978;2023-02-28T00:06:27;14.23;;;7.43;;
17570;SDS011;8903;52.220;20.978;2023-02-28T00:08:54;9.70;;;7.73;;
17570;SDS011;8903;52.220;20.978;2023-02-28T00:11:21;11.80;;;8.00;;
17570;SDS011;8903;52.220;20.978;2023-02-28T00:13:48;13.10;;;8.40;;
17570;SDS011;8903;52.220;20.978;2023-02-28T00:16:17;11.67;;;8.27;;
17570;SDS011;8903;52.220;20.978;2023-02-28T00:18:45;11.50;;;8.23;;
17570;SDS011;8903;52.220;20.978;2023-02-28T00:21:13;11.47;;;7.00;;
17570;SDS011;8903;52.220;20.978;2023-02-28T00:23:42;13.87;;;7.97;;
17570;SDS011;8903;52.220;20.978;2023-02-28T00:26:10;11.73;;;8.53;;
17570;SDS011;8903;52.220;20.978;2023-02-28T00:28:38;12.77;;;8.07;;
17570;SDS011;8903;52.220;20.978;2023-02-28T00:31:05;11.80;;;8.03;;
17570;SDS011;8903;52.220;20.978;2023-02-28T00:33:34;10.67;;;9.57;;
17570;SDS011;8903;52.220;20.978;2023-02-28T00:36:02;11.23;;;7.80;;
17570;SDS011;8903;52.220;20.978;2023-02-28T00:38:30;12.60;;;8.73;;
17570;SDS011;8903;52.220;20.978;2023-02-28T00:41:00;11.80;;;8.30;;
17570;SDS011;8903;52.220;20.978;2023-02-28T00:43:30;13.13;;;7.60;;
17570;SDS011;8903;52.220;20.978;2023-02-28T00:45:58;14.97;;;10.13;;
17570;SDS011;8903;52.220;20.978;2023-02-28T00:48:25;14.00;;;10.80;;
17570;SDS011;8903;52.220;20.978;2023-02-28T00:50:52;19.10;;;8.90;;
17570;SDS011;8903;52.220;20.978;2023-02-28T00:53:19;13.77;;;9.07;;
17570;SDS011;8903;52.220;20.978;2023-02-28T00:55:47;12.77;;;8.80;;
17570;SDS011;8903;52.220;20.978;2023-02-28T00:58:16;12.70;;;9.70;;
17570;SDS011;8903;52.220;20.978;2023-02-28T01:00:43;15.63;;;10.77;;
17570;SDS011;8903;52.220;20.978;2023-02-28T01:03:13;17.57;;;9.10;;
17570;SDS011;8903;52.220;20.978;2023-02-28T01:05:41;13.77;;;10.03;;
17570;SDS011;8903;52.220;20.978;2023-02-28T01:08:08;15.60;;;9.10;;
17570;SDS011;8903;52.220;20.978;2023-02-28T01:10:35;16.23;;;9.30;;
17570;SDS011;8903;52.220;20.978;2023-02-28T01:13:03;16.10;;;10.47;;
17570;SDS011;8903;52.220;20.978;2023-02-28T01:15:32;15.77;;;9.20;;
17570;SDS011;8903;52.220;20.978;2023-02-28T01:17:59;19.10;;;10.67;;
17570;SDS011;8903;52.220;20.978;2023-02-28T01:20:26;14.03;;;9.07;;
17570;SDS011;8903;52.220;20.978;2023-02-28T01:22:53;22.50;;;10.40;;
17570;SDS011;8903;52.220;20.978;2023-02-28T01:25:20;19.93;;;10.93;;
17570;SDS011;8903;52.220;20.978;2023-02-28T01:27:47;15.30;;;9.33;;
17570;SDS011;8903;52.220;20.978;2023-02-28T01:30:14;13.80;;;9.10;;
17570;SDS011;8903;52.220;20.978;2023-02-28T01:32:43;14.00;;;9.93;;
17570;SDS011;8903;52.220;20.978;2023-02-28T01:35:10;15.40;;;9.70;;
17570;SDS011;8903;52.220;20.978;2023-02-28T01:37:37;14.90;;;10.40;;
17570;SDS011;8903;52.220;20.978;2023-02-28T01:40:04;18.40;;;10.27;;
17570;SDS011;8903;52.220;20.978;2023-02-28T01:42:32;20.43;;;10.53;;
17570;SDS011;8903;52.220;20.978;2023-02-28T01:45:00;17.20;;;9.37;;
17570;SDS011;8903;52.220;20.978;2023-02-28T01:47:33;15.27;;;9.40;;
17570;SDS011;8903;52.220;20.978;2023-02-28T01:50:06;22.07;;;10.40;;
17570;SDS011;8903;52.220;20.978;2023-02-28T01:52:38;16.70;;;10.13;;
17570;SDS011;8903;52.220;20.978;2023-02-28T01:55:06;21.20;;;10.17;;
17570;SDS011;8903;52.220;20.978;2023-02-28T01:57:35;13.50;;;8.70;;
17570;SDS011;8903;52.220;20.978;2023-02-28T02:00:06;14.27;;;9.13;;
17570;SDS011;8903;52.220;20.978;2023-02-28T02:02:38;15.00;;;8.80;;
17570;SDS011;8903;52.220;20.978;2023-02-28T02:05:10;14.47;;;9.07;;
17570;SDS011;8903;52.220;20.978;2023-02-28T02:07:41;15.53;;;8.97;;
17570;SDS011;8903;52.220;20.978;2023-02-28T02:10:13;13.10;;;8.50;;
17570;SDS011;8903;52.220;20.978;2023-02-28T02:12:56;13.40;;;7.83;;
17570;SDS011;8903;52.220;20.978;2023-02-28T02:15:35;9.53;;;7.33;;
17570;SDS011;8903;52.220;20.978;2023-02-28T02:18:08;12.57;;;7.43;;
17570;SDS011;8903;52.220;20.978;2023-02-28T02:26:51;12.00;;;6.77;;
17570;SDS011;8903;52.220;20.978;2023-02-28T02:29:40;9.37;;;7.10;;
17570;SDS011;8903;52.220;20.978;2023-02-28T02:32:44;9.00;;;6.83;;
17570;SDS011;8903;52.220;20.978;2023-02-28T02:35:32;9.53;;;7.20;;
17570;SDS011;8903;52.220;20.978;2023-02-28T02:38:06;12.23;;;6.30;;
17570;SDS011;8903;52.220;20.978;2023-02-28T02:40:38;9.57;;;6.40;;
17570;SDS011;8903;52.220;20.978;2023-02-28T02:43:11;12.30;;;7.83;;
17570;SDS011;8903;52.220;20.978;2023-02-28T02:45:44;8.13;;;6.33;;
17570;SDS011;8903;52.220;20.978;2023-02-28T02:48:15;12.20;;;7.87;;
17570;SDS011;8903;52.220;20.978;2023-02-28T02:50:46;12.03;;;7.63;;
17570;SDS011;8903;52.220;20.978;2023-02-28T02:53:18;11.60;;;7.03;;
17570;SDS011;8903;52.220;20.978;2023-02-28T02:55:50;11.53;;;7.47;;
17570;SDS011;8903;52.220;20.978;2023-02-28T02:58:22;9.40;;;6.70;;
17570;SDS011;8903;52.220;20.978;2023-02-28T03:00:53;9.00;;;6.43;;
17570;SDS011;8903;52.220;20.978;2023-02-28T03:03:23;8.63;;;6.93;;
17570;SDS011;8903;52.220;20.978;2023-02-28T03:05:56;8.43;;;6.80;;
17570;SDS011;8903;52.220;20.978;2023-02-28T03:08:26;9.40;;;6.30;;
17570;SDS011;8903;52.220;20.978;2023-02-28T03:10:56;12.30;;;6.77;;
17570;SDS011;8903;52.220;20.978;2023-02-28T03:13:34;8.90;;;6.87;;
17570;SDS011;8903;52.220;20.978;2023-02-28T03:16:23;7.27;;;6.07;;
17570;SDS011;8903;52.220;20.978;2023-02-28T03:19:19;9.67;;;7.03;;
17570;SDS011;8903;52.220;20.978;2023-02-28T03:22:12;7.77;;;6.40;;
17570;SDS011;8903;52.220;20.978;2023-02-28T03:24:46;10.80;;;6.57;;
17570;SDS011;8903;52.220;20.978;2023-02-28T03:27:21;11.70;;;8.00;;
17570;SDS011;8903;52.220;20.978;2023-02-28T03:29:53;10.70;;;6.90;;
17570;SDS011;8903;52.220;20.978;2023-02-28T03:32:28;11.53;;;7.03;;
17570;SDS011;8903;52.220;20.978;2023-02-28T03:35:00;10.30;;;6.93;;
17570;SDS011;8903;52.220;20.978;2023-02-28T03:37:34;15.60;;;7.67;;
17570;SDS011;8903;52.220;20.978;2023-02-28T03:40:04;9.60;;;7.60;;
17570;SDS011;8903;52.220;20.978;2023-02-28T03:42:38;10.50;;;6.37;;
17570;SDS011;8903;52.220;20.978;2023-02-28T03:45:10;7.97;;;7.17;;
17570;SDS011;8903;52.220;20.978;2023-02-28T03:47:41;10.00;;;6.90;;
17570;SDS011;8903;52.220;20.978;2023-02-28T03:50:14;11.30;;;7.43;;
17570;SDS011;8903;52.220;20.978;2023-02-28T03:52:46;10.37;;;6.60;;
17570;SDS011;8903;52.220;20.978;2023-02-28T03:55:16;12.07;;;7.87;;
17570;SDS011;8903;52.220;20.978;2023-02-28T03:57:47;10.90;;;7.00;;
17570;SDS011;8903;52.220;20.978;2023-02-28T04:00:25;12.27;;;8.63;;
17570;SDS011;8903;52.220;20.978;2023-02-28T04:02:58;13.50;;;8.40;;
17570;SDS011;8903;52.220;20.978;2023-02-28T04:05:25;10.00;;;7.50;;
17570;SDS011;8903;52.220;20.978;2023-02-28T04:07:54;13.33;;;9.60;;
17570;SDS011;8903;52.220;20.978;2023-02-28T04:10:30;11.77;;;8.30;;
17570;SDS011;8903;52.220;20.978;2023-02-28T04:12:57;14.30;;;9.80;;
17570;SDS011;8903;52.220;20.978;2023-02-28T04:15:24;14.13;;;10.13;;
17570;SDS011;8903;52.220;20.978;2023-02-28T04:17:52;14.70;;;9.60;;
17570;SDS011;8903;52.220;20.978;2023-02-28T04:20:19;14.70;;;9.10;;
17570;SDS011;8903;52.220;20.978;2023-02-28T04:22:46;12.07;;;8.87;;
17570;SDS011;8903;52.220;20.978;2023-02-28T04:25:15;11.23;;;8.27;;
17570;SDS011;8903;52.220;20.978;2023-02-28T04:27:42;14.60;;;8.77;;
17570;SDS011;8903;52.220;20.978;2023-02-28T04:30:10;12.47;;;8.03;;
17570;SDS011;8903;52.220;20.978;2023-02-28T04:32:38;16.23;;;9.40;;
17570;SDS011;8903;52.220;20.978;2023-02-28T04:35:05;15.67;;;8.57;;
17570;SDS011;8903;52.220;20.978;2023-02-28T04:37:32;14.13;;;9.80;;
17570;SDS011;8903;52.220;20.978;2023-02-28T04:40:00;14.30;;;8.70;;
17570;SDS011;8903;52.220;20.978;2023-02-28T04:42:29;12.33;;;8.60;;
17570;SDS011;8903;52.220;20.978;2023-02-28T04:45:00;15.23;;;8.80;;
17570;SDS011;8903;52.220;20.978;2023-02-28T04:47:28;15.60;;;9.60;;
17570;SDS011;8903;52.220;20.978;2023-02-28T04:49:55;10.40;;;8.27;;
17570;SDS011;8903;52.220;20.978;2023-02-28T04:52:22;13.67;;;9.53;;
17570;SDS011;8903;52.220;20.978;2023-02-28T04:54:49;12.40;;;8.80;;
17570;SDS011;8903;52.220;20.978;2023-02-28T04:57:16;15.00;;;9.20;;
17570;SDS011;8903;52.220;20.978;2023-02-28T04:59:44;14.20;;;9.23;;
17570;SDS011;8903;52.220;20.978;2023-02-28T05:02:11;8.90;;;7.43;;
17570;SDS011;8903;52.220;20.978;2023-02-28T05:04:38;10.90;;;7.93;;
17570;SDS011;8903;52.220;20.978;2023-02-28T05:07:05;11.30;;;8.87;;
17570;SDS011;8903;52.220;20.978;2023-02-28T05:09:33;12.30;;;8.50;;
17570;SDS011;8903;52.220;20.978;2023-02-28T05:11:59;10.03;;;7.87;;
17570;SDS011;8903;52.220;20.978;2023-02-28T05:14:27;17.43;;;9.90;;
17570;SDS011;8903;52.220;20.978;2023-02-28T05:16:55;13.07;;;9.90;;
17570;SDS011;8903;52.220;20.978;2023-02-28T05:19:22;10.60;;;7.90;;
17570;SDS011;8903;52.220;20.978;2023-02-28T05:21:50;14.47;;;8.63;;
17570;SDS011;8903;52.220;20.978;2023-02-28T05:24:18;13.23;;;9.57;;
17570;SDS011;8903;52.220;20.978;2023-02-28T05:26:48;13.67;;;9.87;;
17570;SDS011;8903;52.220;20.978;2023-02-28T05:29:17;12.30;;;8.90;;
17570;SDS011;8903;52.220;20.978;2023-02-28T05:31:44;12.60;;;9.27;;
17570;SDS011;8903;52.220;20.978;2023-02-28T05:34:13;18.23;;;9.37;;
17570;SDS011;8903;52.220;20.978;2023-02-28T05:36:40;18.10;;;8.47;;
17570;SDS011;8903;52.220;20.978;2023-02-28T05:39:08;13.03;;;8.60;;
17570;SDS011;8903;52.220;20.978;2023-02-28T05:41:38;14.20;;;8.67;;
17570;SDS011;8903;52.220;20.978;2023-02-28T05:44:06;23.90;;;9.50;;
17570;SDS011;8903;52.220;20.978;2023-02-28T05:46:33;12.20;;;7.87;;
17570;SDS011;8903;52.220;20.978;2023-02-28T05:49:00;11.47;;;8.13;;
17570;SDS011;8903;52.220;20.978;2023-02-28T05:51:29;10.70;;;8.20;;
17570;SDS011;8903;52.220;20.978;2023-02-28T05:53:58;14.80;;;7.77;;
17570;SDS011;8903;52.220;20.978;2023-02-28T05:56:26;14.70;;;8.87;;
17570;SDS011;8903;52.220;20.978;2023-02-28T05:58:53;12.20;;;8.73;;
17570;SDS011;8903;52.220;20.978;2023-02-28T06:01:24;19.80;;;8.43;;
17570;SDS011;8903;52.220;20.978;2023-02-28T06:03:57;10.83;;;8.13;;
17570;SDS011;8903;52.220;20.978;2023-02-28T06:06:25;21.93;;;8.20;;
17570;SDS011;8903;52.220;20.978;2023-02-28T06:08:53;12.73;;;7.90;;
17570;SDS011;8903;52.220;20.978;2023-02-28T06:11:20;12.80;;;8.40;;
17570;SDS011;8903;52.220;20.978;2023-02-28T06:13:52;14.00;;;7.73;;
17570;SDS011;8903;52.220;20.978;2023-02-28T06:16:20;12.20;;;8.00;;
17570;SDS011;8903;52.220;20.978;2023-02-28T06:18:47;13.93;;;7.60;;
17570;SDS011;8903;52.220;20.978;2023-02-28T06:21:14;15.50;;;8.37;;
17570;SDS011;8903;52.220;20.978;2023-02-28T06:23:41;15.70;;;8.53;;
17570;SDS011;8903;52.220;20.978;2023-02-28T06:26:10;16.80;;;8.90;;
17570;SDS011;8903;52.220;20.978;2023-02-28T06:28:37;12.83;;;7.93;;
17570;SDS011;8903;52.220;20.978;2023-02-28T06:31:07;21.60;;;7.90;;
17570;SDS011;8903;52.220;20.978;2023-02-28T06:33:36;15.63;;;7.83;;
17570;SDS011;8903;52.220;20.978;2023-02-28T06:36:04;13.60;;;9.00;;
17570;SDS011;8903;52.220;20.978;2023-02-28T06:38:32;11.27;;;8.03;;
17570;SDS011;8903;52.220;20.978;2023-02-28T06:41:00;11.90;;;8.47;;
17570;SDS011;8903;52.220;20.978;2023-02-28T06:43:29;8.80;;;7.90;;
17570;SDS011;8903;52.220;20.978;2023-02-28T06:45:59;12.47;;;8.50;;
17570;SDS011;8903;52.220;20.978;2023-02-28T06:48:28;17.00;;;9.53;;
17570;SDS011;8903;52.220;20.978;2023-02-28T06:51:02;13.00;;;10.37;;
17570;SDS011;8903;52.220;20.978;2023-02-28T06:53:30;14.30;;;8.67;;
17570;SDS011;8903;52.220;20.978;2023-02-28T06:55:57;14.20;;;8.80;;
17570;SDS011;8903;52.220;20.978;2023-02-28T06:58:25;15.13;;;8.80;;
17570;SDS011;8903;52.220;20.978;2023-02-28T07:00:53;17.30;;;7.90;;
17570;SDS011;8903;52.220;20.978;2023-02-28T07:03:21;15.17;;;8.10;;
17570;SDS011;8903;52.220;20.978;2023-02-28T07:05:48;13.07;;;9.00;;
17570;SDS011;8903;52.220;20.978;2023-02-28T07:08:16;12.10;;;7.50;;
17570;SDS011;8903;52.220;20.978;2023-02-28T07:10:43;15.13;;;8.00;;
17570;SDS011;8903;52.220;20.978;2023-02-28T07:13:11;15.10;;;7.57;;
17570;SDS011;8903;52.220;20.978;2023-02-28T07:15:38;11.93;;;7.57;;
17570;SDS011;8903;52.220;20.978;2023-02-28T07:18:06;11.53;;;7.10;;
17570;SDS011;8903;52.220;20.978;2023-02-28T07:20:33;12.30;;;7.70;;
17570;SDS011;8903;52.220;20.978;2023-02-28T07:23:00;10.80;;;7.20;;
17570;SDS011;8903;52.220;20.978;2023-02-28T07:25:29;37.43;;;13.33;;
17570;SDS011;8903;52.220;20.978;2023-02-28T07:27:56;9.90;;;7.10;;
17570;SDS011;8903;52.220;20.978;2023-02-28T07:30:25;7.70;;;6.37;;
17570;SDS011;8903;52.220;20.978;2023-02-28T07:32:52;11.13;;;7.70;;
17570;SDS011;8903;52.220;20.978;2023-02-28T07:35:22;11.20;;;7.40;;
17570;SDS011;8903;52.220;20.978;2023-02-28T07:37:49;15.23;;;6.70;;
17570;SDS011;8903;52.220;20.978;2023-02-28T07:40:16;22.07;;;7.57;;
17570;SDS011;8903;52.220;20.978;2023-02-28T07:42:44;20.03;;;8.03;;
17570;SDS011;8903;52.220;20.978;2023-02-28T07:45:15;9.83;;;7.10;;
17570;SDS011;8903;52.220;20.978;2023-02-28T07:47:43;19.07;;;8.30;;
17570;SDS011;8903;52.220;20.978;2023-02-28T07:50:11;14.97;;;7.27;;
17570;SDS011;8903;52.220;20.978;2023-02-28T07:52:41;10.07;;;7.20;;
17570;SDS011;8903;52.220;20.978;2023-02-28T07:55:09;11.83;;;6.87;;
17570;SDS011;8903;52.220;20.978;2023-02-28T07:57:36;11.40;;;7.70;;
17570;SDS011;8903;52.220;20.978;2023-02-28T08:00:04;11.60;;;8.23;;
17570;SDS011;8903;52.220;20.978;2023-02-28T08:02:39;13.67;;;8.30;;
17570;SDS011;8903;52.220;20.978;2023-02-28T08:05:06;11.03;;;8.10;;
17570;SDS011;8903;52.220;20.978;2023-02-28T08:07:34;12.77;;;8.63;;
17570;SDS011;8903;52.220;20.978;2023-02-28T08:10:03;10.33;;;8.43;;
17570;SDS011;8903;52.220;20.978;2023-02-28T08:12:31;9.57;;;7.80;;
17570;SDS011;8903;52.220;20.978;2023-02-28T08:14:59;11.10;;;8.07;;
17570;SDS011;8903;52.220;20.978;2023-02-28T08:17:26;12.67;;;8.43;;
17570;SDS011;8903;52.220;20.978;2023-02-28T08:19:53;10.73;;;8.50;;
17570;SDS011;8903;52.220;20.978;2023-02-28T08:22:20;18.33;;;7.97;;
17570;SDS011;8903;52.220;20.978;2023-02-28T08:24:47;13.90;;;8.60;;
17570;SDS011;8903;52.220;20.978;2023-02-28T08:27:16;12.43;;;8.60;;
17570;SDS011;8903;52.220;20.978;2023-02-28T08:29:43;10.60;;;8.70;;
17570;SDS011;8903;52.220;20.978;2023-02-28T08:32:10;9.17;;;7.87;;
17570;SDS011;8903;52.220;20.978;2023-02-28T08:34:38;16.13;;;8.97;;
17570;SDS011;8903;52.220;20.978;2023-02-28T08:37:05;10.00;;;8.17;;
17570;SDS011;8903;52.220;20.978;2023-02-28T08:39:33;16.13;;;10.07;;
17570;SDS011;8903;52.220;20.978;2023-02-28T08:42:01;16.47;;;8.80;;
17570;SDS011;8903;52.220;20.978;2023-02-28T08:44:29;11.00;;;7.67;;
17570;SDS011;8903;52.220;20.978;2023-02-28T08:46:57;13.70;;;7.93;;
17570;SDS011;8903;52.220;20.978;2023-02-28T08:49:24;12.63;;;8.07;;
17570;SDS011;8903;52.220;20.978;2023-02-28T08:51:51;12.03;;;8.30;;
17570;SDS011;8903;52.220;20.978;2023-02-28T08:54:19;12.70;;;8.30;;
17570;SDS011;8903;52.220;20.978;2023-02-28T08:56:46;14.57;;;7.57;;
17570;SDS011;8903;52.220;20.978;2023-02-28T08:59:13;14.73;;;9.30;;
17570;SDS011;8903;52.220;20.978;2023-02-28T09:01:42;12.33;;;9.10;;
17570;SDS011;8903;52.220;20.978;2023-02-28T09:04:09;13.13;;;8.13;;
17570;SDS011;8903;52.220;20.978;2023-02-28T09:06:37;11.27;;;8.33;;
17570;SDS011;8903;52.220;20.978;2023-02-28T09:09:04;11.97;;;7.30;;
17570;SDS011;8903;52.220;20.978;2023-02-28T09:11:32;12.07;;;8.00;;
17570;SDS011;8903;52.220;20.978;2023-02-28T09:14:00;15.70;;;9.10;;
17570;SDS011;8903;52.220;20.978;2023-02-28T09:16:29;14.87;;;9.40;;
17570;SDS011;8903;52.220;20.978;2023-02-28T09:18:58;14.70;;;9.93;;
17570;SDS011;8903;52.220;20.978;2023-02-28T09:21:25;13.37;;;9.30;;
17570;SDS011;8903;52.220;20.978;2023-02-28T09:23:53;13.37;;;9.07;;
17570;SDS011;8903;52.220;20.978;2023-02-28T09:26:21;12.60;;;8.73;;
17570;SDS011;8903;52.220;20.978;2023-02-28T09:28:49;15.80;;;9.50;;
17570;SDS011;8903;52.220;20.978;2023-02-28T09:31:18;16.47;;;8.70;;
17570;SDS011;8903;52.220;20.978;2023-02-28T09:33:47;16.70;;;9.87;;
17570;SDS011;8903;52.220;20.978;2023-02-28T09:36:15;15.80;;;10.30;;
17570;SDS011;8903;52.220;20.978;2023-02-28T09:38:43;13.80;;;9.20;;
17570;SDS011;8903;52.220;20.978;2023-02-28T09:41:12;13.30;;;9.47;;
17570;SDS011;8903;52.220;20.978;2023-02-28T09:43:43;12.13;;;9.67;;
17570;SDS011;8903;52.220;20.978;2023-02-28T09:46:25;15.73;;;9.40;;
17570;SDS011;8903;52.220;20.978;2023-02-28T09:48:56;24.77;;;10.90;;
17570;SDS011;8903;52.220;20.978;2023-02-28T09:51:30;15.33;;;8.63;;
17570;SDS011;8903;52.220;20.978;2023-02-28T09:54:06;14.27;;;9.63;;
17570;SDS011;8903;52.220;20.978;2023-02-28T09:56:39;16.40;;;8.83;;
17570;SDS011;8903;52.220;20.978;2023-02-28T09:59:10;16.97;;;10.33;;
17570;SDS011;8903;52.220;20.978;2023-02-28T10:01:45;16.23;;;10.53;;
17570;SDS011;8903;52.220;20.978;2023-02-28T10:04:25;13.63;;;10.50;;
17570;SDS011;8903;52.220;20.978;2023-02-28T10:07:11;13.03;;;9.37;;
17570;SDS011;8903;52.220;20.978;2023-02-28T10:09:50;11.27;;;8.50;;
17570;SDS011;8903;52.220;20.978;2023-02-28T10:12:19;12.93;;;8.53;;
17570;SDS011;8903;52.220;20.978;2023-02-28T10:14:47;12.83;;;9.03;;
17570;SDS011;8903;52.220;20.978;2023-02-28T10:17:18;13.87;;;10.17;;
17570;SDS011;8903;52.220;20.978;2023-02-28T10:19:50;15.60;;;9.70;;
17570;SDS011;8903;52.220;20.978;2023-02-28T10:22:27;13.93;;;9.93;;
17570;SDS011;8903;52.220;20.978;2023-02-28T10:24:58;14.00;;;10.33;;
17570;SDS011;8903;52.220;20.978;2023-02-28T10:27:29;14.03;;;11.37;;
17570;SDS011;8903;52.220;20.978;2023-02-28T10:29:58;18.47;;;11.07;;
17570;SDS011;8903;52.220;20.978;2023-02-28T10:32:27;14.63;;;10.60;;
17570;SDS011;8903;52.220;20.978;2023-02-28T10:34:57;15.07;;;10.13;;
17570;SDS011;8903;52.220;20.978;2023-02-28T10:37:27;13.63;;;10.87;;
17570;SDS011;8903;52.220;20.978;2023-02-28T10:39:56;22.03;;;12.33;;
17570;SDS011;8903;52.220;20.978;2023-02-28T10:42:24;15.77;;;9.87;;
17570;SDS011;8903;52.220;20.978;2023-02-28T10:45:04;12.93;;;10.60;;
17570;SDS011;8903;52.220;20.978;2023-02-28T10:47:33;13.23;;;10.03;;
17570;SDS011;8903;52.220;20.978;2023-02-28T10:50:02;20.43;;;12.83;;
17570;SDS011;8903;52.220;20.978;2023-02-28T10:52:36;16.90;;;11.97;;
17570;SDS011;8903;52.220;20.978;2023-02-28T10:55:18;13.53;;;11.60;;
17570;SDS011;8903;52.220;20.978;2023-02-28T10:57:48;22.70;;;11.07;;
17570;SDS011;8903;52.220;20.978;2023-02-28T11:00:16;20.67;;;10.53;;
17570;SDS011;8903;52.220;20.978;2023-02-28T11:02:45;14.43;;;10.53;;
17570;SDS011;8903;52.220;20.978;2023-02-28T11:05:25;17.47;;;11.60;;
17570;SDS011;8903;52.220;20.978;2023-02-28T11:07:55;17.50;;;11.60;;
17570;SDS011;8903;52.220;20.978;2023-02-28T11:10:26;14.33;;;11.63;;
17570;SDS011;8903;52.220;20.978;2023-02-28T11:12:57;18.20;;;11.17;;
17570;SDS011;8903;52.220;20.978;2023-02-28T11:15:26;12.93;;;10.30;;
17570;SDS011;8903;52.220;20.978;2023-02-28T11:17:55;15.70;;;11.43;;
17570;SDS011;8903;52.220;20.978;2023-02-28T11:20:26;24.47;;;11.33;;
17570;SDS011;8903;52.220;20.978;2023-02-28T11:22:57;16.60;;;9.97;;
17570;SDS011;8903;52.220;20.978;2023-02-28T11:25:28;22.57;;;10.50;;
17570;SDS011;8903;52.220;20.978;2023-02-28T11:27:57;20.57;;;12.47;;
17570;SDS011;8903;52.220;20.978;2023-02-28T11:30:27;14.83;;;10.50;;
17570;SDS011;8903;52.220;20.978;2023-02-28T11:33:26;16.63;;;11.13;;
17570;SDS011;8903;52.220;20.978;2023-02-28T11:35:55;16.60;;;11.67;;
17570;SDS011;8903;52.220;20.978;2023-02-28T11:38:28;15.83;;;11.13;;
17570;SDS011;8903;52.220;20.978;2023-02-28T11:41:01;22.97;;;11.57;;
17570;SDS011;8903;52.220;20.978;2023-02-28T11:43:38;16.07;;;11.70;;
17570;SDS011;8903;52.220;20.978;2023-02-28T11:46:22;21.63;;;11.60;;
17570;SDS011;8903;52.220;20.978;2023-02-28T11:48:58;14.73;;;11.40;;
17570;SDS011;8903;52.220;20.978;2023-02-28T11:51:34;15.00;;;12.00;;
17570;SDS011;8903;52.220;20.978;2023-02-28T11:54:26;14.67;;;10.77;;
17570;SDS011;8903;52.220;20.978;2023-02-28T11:57:03;17.27;;;11.93;;
17570;SDS011;8903;52.220;20.978;2023-02-28T11:59:46;15.87;;;11.73;;
17570;SDS011;8903;52.220;20.978;2023-02-28T12:02:26;16.63;;;10.43;;
17570;SDS011;8903;52.220;20.978;2023-02-28T12:05:10;18.80;;;11.83;;
17570;SDS011;8903;52.220;20.978;2023-02-28T12:07:47;25.00;;;12.73;;
17570;SDS011;8903;52.220;20.978;2023-02-28T12:10:23;16.93;;;11.33;;
17570;SDS011;8903;52.220;20.978;2023-02-28T12:12:55;18.80;;;10.60;;
17570;SDS011;8903;52.220;20.978;2023-02-28T12:18:28;17.50;;;10.93;;
17570;SDS011;8903;52.220;20.978;2023-02-28T12:21:04;13.70;;;11.57;;
17570;SDS011;8903;52.220;20.978;2023-02-28T12:23:47;17.40;;;12.40;;
17570;SDS011;8903;52.220;20.978;2023-02-28T12:26:28;12.83;;;10.77;;
17570;SDS011;8903;52.220;20.978;2023-02-28T12:29:04;16.93;;;10.60;;
17570;SDS011;8903;52.220;20.978;2023-02-28T12:31:40;13.47;;;11.90;;
17570;SDS011;8903;52.220;20.978;2023-02-28T12:34:13;14.20;;;10.23;;
17570;SDS011;8903;52.220;20.978;2023-02-28T12:36:44;18.80;;;11.10;;
17570;SDS011;8903;52.220;20.978;2023-02-28T12:39:15;17.80;;;10.20;;
17570;SDS011;8903;52.220;20.978;2023-02-28T12:41:48;11.10;;;9.93;;
17570;SDS011;8903;52.220;20.978;2023-02-28T12:44:21;19.30;;;11.60;;
17570;SDS011;8903;52.220;20.978;2023-02-28T12:46:54;11.80;;;10.00;;
17570;SDS011;8903;52.220;20.978;2023-02-28T12:49:25;15.53;;;11.47;;
17570;SDS011;8903;52.220;20.978;2023-02-28T12:51:56;18.00;;;11.87;;
17570;SDS011;8903;52.220;20.978;2023-02-28T12:54:26;17.23;;;10.33;;
17570;SDS011;8903;52.220;20.978;2023-02-28T12:57:06;16.30;;;11.00;;
17570;SDS011;8903;52.220;20.978;2023-02-28T12:59:40;14.43;;;11.43;;
17570;SDS011;8903;52.220;20.978;2023-02-28T13:02:24;14.03;;;11.40;;
17570;SDS011;8903;52.220;20.978;2023-02-28T13:05:19;15.37;;;10.27;;
17570;SDS011;8903;52.220;20.978;2023-02-28T13:11:01;17.07;;;12.00;;
17570;SDS011;8903;52.220;20.978;2023-02-28T13:13:30;16.60;;;10.90;;
17570;SDS011;8903;52.220;20.978;2023-02-28T13:15:58;19.73;;;11.73;;
17570;SDS011;8903;52.220;20.978;2023-02-28T13:18:28;17.30;;;11.13;;
17570;SDS011;8903;52.220;20.978;2023-02-28T13:20:58;15.40;;;11.20;;
17570;SDS011;8903;52.220;20.978;2023-02-28T13:29:31;16.00;;;11.87;;
17570;SDS011;8903;52.220;20.978;2023-02-28T13:38:21;19.40;;;12.97;;
17570;SDS011;8903;52.220;20.978;2023-02-28T13:44:14;20.63;;;13.00;;
17570;SDS011;8903;52.220;20.978;2023-02-28T13:49:49;14.93;;;11.17;;
17570;SDS011;8903;52.220;20.978;2023-02-28T13:52:18;16.13;;;11.17;;
17570;SDS011;8903;52.220;20.978;2023-02-28T13:57:48;15.00;;;11.07;;
17570;SDS011;8903;52.220;20.978;2023-02-28T14:00:31;15.10;;;11.10;;
17570;SDS011;8903;52.220;20.978;2023-02-28T14:03:14;13.83;;;11.67;;
17570;SDS011;8903;52.220;20.978;2023-02-28T14:08:45;29.30;;;11.03;;
17570;SDS011;8903;52.220;20.978;2023-02-28T14:11:28;14.77;;;11.60;;
17570;SDS011;8903;52.220;20.978;2023-02-28T14:13:59;19.10;;;12.40;;
17570;SDS011;8903;52.220;20.978;2023-02-28T14:16:35;15.17;;;11.13;;
17570;SDS011;8903;52.220;20.978;2023-02-28T14:19:09;19.60;;;11.87;;
17570;SDS011;8903;52.220;20.978;2023-02-28T14:21:46;15.23;;;10.17;;
17570;SDS011;8903;52.220;20.978;2023-02-28T14:24:34;15.80;;;10.87;;
17570;SDS011;8903;52.220;20.978;2023-02-28T14:27:24;18.20;;;11.87;;
17570;SDS011;8903;52.220;20.978;2023-02-28T14:33:00;15.90;;;11.00;;
17570;SDS011;8903;52.220;20.978;2023-02-28T14:35:46;16.87;;;10.20;;
17570;SDS011;8903;52.220;20.978;2023-02-28T14:38:26;15.83;;;10.40;;
17570;SDS011;8903;52.220;20.978;2023-02-28T14:40:56;14.10;;;10.47;;
17570;SDS011;8903;52.220;20.978;2023-02-28T14:43:27;15.53;;;9.77;;
17570;SDS011;8903;52.220;20.978;2023-02-28T14:45:55;15.73;;;10.20;;
17570;SDS011;8903;52.220;20.978;2023-02-28T14:48:24;13.37;;;10.40;;
17570;SDS011;8903;52.220;20.978;2023-02-28T14:50:53;14.83;;;9.83;;
17570;SDS011;8903;52.220;20.978;2023-02-28T14:53:22;18.00;;;11.13;;
17570;SDS011;8903;52.220;20.978;2023-02-28T14:55:52;21.27;;;11.50;;
17570;SDS011;8903;52.220;20.978;2023-02-28T14:58:21;15.20;;;10.53;;
17570;SDS011;8903;52.220;20.978;2023-02-28T15:00:52;15.03;;;11.13;;
17570;SDS011;8903;52.220;20.978;2023-02-28T15:03:20;25.60;;;11.00;;
17570;SDS011;8903;52.220;20.978;2023-02-28T15:05:53;13.87;;;10.00;;
17570;SDS011;8903;52.220;20.978;2023-02-28T15:08:22;13.53;;;9.10;;
17570;SDS011;8903;52.220;20.978;2023-02-28T15:10:54;21.00;;;10.50;;
17570;SDS011;8903;52.220;20.978;2023-02-28T15:13:35;16.97;;;11.00;;
17570;SDS011;8903;52.220;20.978;2023-02-28T15:16:06;15.40;;;11.27;;
17570;SDS011;8903;52.220;20.978;2023-02-28T15:18:42;17.30;;;10.97;;
17570;SDS011;8903;52.220;20.978;2023-02-28T15:21:14;16.90;;;10.90;;
17570;SDS011;8903;52.220;20.978;2023-02-28T15:23:44;14.20;;;10.87;;
17570;SDS011;8903;52.220;20.978;2023-02-28T15:26:15;16.37;;;11.13;;
17570;SDS011;8903;52.220;20.978;2023-02-28T15:28:45;19.43;;;11.20;;
17570;SDS011;8903;52.220;20.978;2023-02-28T15:31:18;15.90;;;9.63;;
17570;SDS011;8903;52.220;20.978;2023-02-28T15:33:52;17.60;;;10.63;;